sensor_id;sensor_type;location;lat;lon;timestamp;P1;durP1;ratioP1;P2;durP2;ratioP2
21800;SDS011;11062;51.164;16.924;2022-07-18T00:00:15;6.78;;;3.45;;
21800;SDS011;11062;51.164;16.924;2022-07-18T00:02:41;6.38;;;3.15;;
21800;SDS011;11062;51.164;16.924;2022-07-18T00:05:07;6.78;;;2.28;;
21800;SDS011;11062;51.164;16.924;2022-07-18T00:07:33;6.47;;;2.80;;
21800;SDS011;11062;51.164;16.924;2022-07-18T00:09:59;4.32;;;2.80;;
21800;SDS011;11062;51.164;16.924;2022-07-18T00:12:26;6.63;;;2.58;;
21800;SDS011;11062;51.164;16.924;2022-07-18T00:14:52;14.57;;;4.35;;
21800;SDS011;11062;51.164;16.924;2022-07-18T00:17:18;12.02;;;3.47;;
21800;SDS011;11062;51.164;16.924;2022-07-18T00:19:44;10.43;;;3.80;;
21800;SDS011;11062;51.164;16.924;2022-07-18T00:22:09;10.02;;;3.90;;
21800;SDS011;11062;51.164;16.924;2022-07-18T00:24:35;4.85;;;2.42;;
21800;SDS011;11062;51.164;16.924;2022-07-18T00:27:03;8.05;;;3.17;;
21800;SDS011;11062;51.164;16.924;2022-07-18T00:29:29;9.32;;;3.70;;
21800;SDS011;11062;51.164;16.924;2022-07-18T00:31:55;7.80;;;3.20;;
21800;SDS011;11062;51.164;16.924;2022-07-18T00:34:21;15.35;;;4.50;;
21800;SDS011;11062;51.164;16.924;2022-07-18T00:36:48;3.42;;;2.50;;
21800;SDS011;11062;51.164;16.924;2022-07-18T00:39:14;14.95;;;4.72;;
21800;SDS011;11062;51.164;16.924;2022-07-18T00:41:46;11.30;;;3.47;;
21800;SDS011;11062;51.164;16.924;2022-07-18T00:44:20;10.32;;;3.05;;
21800;SDS011;11062;51.164;16.924;2022-07-18T00:46:51;14.93;;;3.90;;
21800;SDS011;11062;51.164;16.924;2022-07-18T00:49:18;8.82;;;3.40;;
21800;SDS011;11062;51.164;16.924;2022-07-18T00:51:45;30.08;;;6.18;;
21800;SDS011;11062;51.164;16.924;2022-07-18T00:54:11;20.95;;;4.60;;
21800;SDS011;11062;51.164;16.924;2022-07-18T00:56:37;13.45;;;4.07;;
21800;SDS011;11062;51.164;16.924;2022-07-18T00:59:04;17.58;;;4.03;;
21800;SDS011;11062;51.164;16.924;2022-07-18T01:01:30;11.48;;;3.85;;
21800;SDS011;11062;51.164;16.924;2022-07-18T01:04:09;9.98;;;3.53;;
21800;SDS011;11062;51.164;16.924;2022-07-18T01:06:38;14.75;;;3.30;;
21800;SDS011;11062;51.164;16.924;2022-07-18T01:09:05;12.35;;;4.25;;
21800;SDS011;11062;51.164;16.924;2022-07-18T01:11:31;12.73;;;4.40;;
21800;SDS011;11062;51.164;16.924;2022-07-18T01:14:00;18.23;;;4.57;;
21800;SDS011;11062;51.164;16.924;2022-07-18T01:16:29;16.77;;;4.03;;
21800;SDS011;11062;51.164;16.924;2022-07-18T01:18:55;14.73;;;3.90;;
21800;SDS011;11062;51.164;16.924;2022-07-18T01:21:21;17.33;;;4.03;;
21800;SDS011;11062;51.164;16.924;2022-07-18T01:23:47;23.92;;;4.63;;
21800;SDS011;11062;51.164;16.924;2022-07-18T01:26:14;23.50;;;4.80;;
21800;SDS011;11062;51.164;16.924;2022-07-18T01:28:42;14.90;;;4.03;;
21800;SDS011;11062;51.164;16.924;2022-07-18T01:31:08;12.90;;;3.65;;
21800;SDS011;11062;51.164;16.924;2022-07-18T01:33:37;19.05;;;4.20;;
21800;SDS011;11062;51.164;16.924;2022-07-18T01:36:04;3.78;;;2.78;;
21800;SDS011;11062;51.164;16.924;2022-07-18T01:38:30;5.20;;;3.08;;
21800;SDS011;11062;51.164;16.924;2022-07-18T01:40:58;6.00;;;2.67;;
21800;SDS011;11062;51.164;16.924;2022-07-18T01:43:24;5.70;;;2.90;;
21800;SDS011;11062;51.164;16.924;2022-07-18T01:45:52;3.75;;;2.55;;
21800;SDS011;11062;51.164;16.924;2022-07-18T01:48:18;3.30;;;2.53;;
21800;SDS011;11062;51.164;16.924;2022-07-18T01:50:45;5.28;;;2.90;;
21800;SDS011;11062;51.164;16.924;2022-07-18T01:53:11;5.32;;;3.08;;
21800;SDS011;11062;51.164;16.924;2022-07-18T01:55:38;4.28;;;2.60;;
21800;SDS011;11062;51.164;16.924;2022-07-18T01:58:04;6.50;;;2.90;;
21800;SDS011;11062;51.164;16.924;2022-07-18T02:00:31;3.72;;;2.58;;
21800;SDS011;11062;51.164;16.924;2022-07-18T02:02:57;4.40;;;2.03;;
21800;SDS011;11062;51.164;16.924;2022-07-18T02:05:23;8.88;;;2.47;;
21800;SDS011;11062;51.164;16.924;2022-07-18T02:07:49;3.85;;;2.50;;
21800;SDS011;11062;51.164;16.924;2022-07-18T02:10:16;5.13;;;2.28;;
21800;SDS011;11062;51.164;16.924;2022-07-18T02:12:44;3.97;;;2.50;;
21800;SDS011;11062;51.164;16.924;2022-07-18T02:15:11;6.95;;;2.90;;
21800;SDS011;11062;51.164;16.924;2022-07-18T02:17:38;4.43;;;3.17;;
21800;SDS011;11062;51.164;16.924;2022-07-18T02:20:05;14.15;;;2.33;;
21800;SDS011;11062;51.164;16.924;2022-07-18T02:22:33;3.33;;;2.20;;
21800;SDS011;11062;51.164;16.924;2022-07-18T02:24:59;4.10;;;2.42;;
21800;SDS011;11062;51.164;16.924;2022-07-18T02:27:26;3.45;;;2.60;;
21800;SDS011;11062;51.164;16.924;2022-07-18T02:29:52;5.65;;;2.40;;
21800;SDS011;11062;51.164;16.924;2022-07-18T02:32:18;4.50;;;2.58;;
21800;SDS011;11062;51.164;16.924;2022-07-18T02:34:44;4.25;;;2.53;;
21800;SDS011;11062;51.164;16.924;2022-07-18T02:37:10;5.00;;;2.53;;
21800;SDS011;11062;51.164;16.924;2022-07-18T02:39:37;6.72;;;2.33;;
21800;SDS011;11062;51.164;16.924;2022-07-18T02:42:03;3.65;;;2.40;;
21800;SDS011;11062;51.164;16.924;2022-07-18T02:44:29;6.03;;;2.83;;
21800;SDS011;11062;51.164;16.924;2022-07-18T02:46:55;3.80;;;2.40;;
21800;SDS011;11062;51.164;16.924;2022-07-18T02:49:21;10.40;;;3.17;;
21800;SDS011;11062;51.164;16.924;2022-07-18T02:51:57;4.63;;;2.40;;
21800;SDS011;11062;51.164;16.924;2022-07-18T02:54:25;8.77;;;2.70;;
21800;SDS011;11062;51.164;16.924;2022-07-18T02:56:51;3.78;;;2.55;;
21800;SDS011;11062;51.164;16.924;2022-07-18T02:59:18;3.63;;;2.38;;
21800;SDS011;11062;51.164;16.924;2022-07-18T03:01:44;4.03;;;2.17;;
21800;SDS011;11062;51.164;16.924;2022-07-18T03:04:10;4.47;;;2.17;;
21800;SDS011;11062;51.164;16.924;2022-07-18T03:06:36;3.85;;;2.55;;
21800;SDS011;11062;51.164;16.924;2022-07-18T03:09:02;5.35;;;2.50;;
21800;SDS011;11062;51.164;16.924;2022-07-18T03:11:29;5.75;;;3.03;;
21800;SDS011;11062;51.164;16.924;2022-07-18T03:13:55;6.78;;;3.17;;
21800;SDS011;11062;51.164;16.924;2022-07-18T03:16:21;7.72;;;3.00;;
21800;SDS011;11062;51.164;16.924;2022-07-18T03:18:47;4.50;;;2.55;;
21800;SDS011;11062;51.164;16.924;2022-07-18T03:21:12;7.38;;;2.53;;
21800;SDS011;11062;51.164;16.924;2022-07-18T03:23:38;6.20;;;2.97;;
21800;SDS011;11062;51.164;16.924;2022-07-18T03:26:05;4.57;;;2.85;;
21800;SDS011;11062;51.164;16.924;2022-07-18T03:28:30;7.60;;;2.83;;
21800;SDS011;11062;51.164;16.924;2022-07-18T03:30:56;5.10;;;2.92;;
21800;SDS011;11062;51.164;16.924;2022-07-18T03:33:27;4.57;;;2.88;;
21800;SDS011;11062;51.164;16.924;2022-07-18T03:35:52;5.72;;;3.15;;
21800;SDS011;11062;51.164;16.924;2022-07-18T03:38:18;5.53;;;2.92;;
21800;SDS011;11062;51.164;16.924;2022-07-18T03:40:44;16.90;;;2.65;;
21800;SDS011;11062;51.164;16.924;2022-07-18T03:43:10;8.95;;;2.95;;
21800;SDS011;11062;51.164;16.924;2022-07-18T03:45:36;4.68;;;2.60;;
21800;SDS011;11062;51.164;16.924;2022-07-18T03:48:03;6.30;;;2.78;;
21800;SDS011;11062;51.164;16.924;2022-07-18T03:50:29;10.20;;;3.00;;
21800;SDS011;11062;51.164;16.924;2022-07-18T03:52:55;14.27;;;3.47;;
21800;SDS011;11062;51.164;16.924;2022-07-18T03:55:21;7.93;;;3.00;;
21800;SDS011;11062;51.164;16.924;2022-07-18T03:57:47;3.95;;;2.67;;
21800;SDS011;11062;51.164;16.924;2022-07-18T04:00:14;4.65;;;3.00;;
21800;SDS011;11062;51.164;16.924;2022-07-18T04:02:44;4.40;;;2.60;;
21800;SDS011;11062;51.164;16.924;2022-07-18T04:05:12;5.65;;;2.40;;
21800;SDS011;11062;51.164;16.924;2022-07-18T04:07:38;6.30;;;3.05;;
21800;SDS011;11062;51.164;16.924;2022-07-18T04:10:06;6.28;;;3.03;;
21800;SDS011;11062;51.164;16.924;2022-07-18T04:12:33;3.60;;;2.60;;
21800;SDS011;11062;51.164;16.924;2022-07-18T04:14:59;7.75;;;2.60;;
21800;SDS011;11062;51.164;16.924;2022-07-18T04:17:25;8.18;;;2.85;;
21800;SDS011;11062;51.164;16.924;2022-07-18T04:19:51;6.22;;;2.53;;
21800;SDS011;11062;51.164;16.924;2022-07-18T04:22:17;5.05;;;2.88;;
21800;SDS011;11062;51.164;16.924;2022-07-18T04:24:43;8.95;;;3.25;;
21800;SDS011;11062;51.164;16.924;2022-07-18T04:27:09;5.35;;;2.92;;
21800;SDS011;11062;51.164;16.924;2022-07-18T04:29:35;8.10;;;2.70;;
21800;SDS011;11062;51.164;16.924;2022-07-18T04:32:02;4.80;;;2.95;;
21800;SDS011;11062;51.164;16.924;2022-07-18T04:34:28;8.25;;;3.33;;
21800;SDS011;11062;51.164;16.924;2022-07-18T04:36:54;8.18;;;3.10;;
21800;SDS011;11062;51.164;16.924;2022-07-18T04:39:20;5.85;;;3.10;;
21800;SDS011;11062;51.164;16.924;2022-07-18T04:41:46;6.20;;;2.72;;
21800;SDS011;11062;51.164;16.924;2022-07-18T04:44:13;6.40;;;3.30;;
21800;SDS011;11062;51.164;16.924;2022-07-18T04:46:39;8.88;;;3.33;;
21800;SDS011;11062;51.164;16.924;2022-07-18T04:49:05;7.20;;;3.05;;
21800;SDS011;11062;51.164;16.924;2022-07-18T04:51:31;5.85;;;2.95;;
21800;SDS011;11062;51.164;16.924;2022-07-18T04:53:57;6.18;;;3.80;;
21800;SDS011;11062;51.164;16.924;2022-07-18T04:56:23;6.05;;;3.47;;
21800;SDS011;11062;51.164;16.924;2022-07-18T04:58:49;5.65;;;3.28;;
21800;SDS011;11062;51.164;16.924;2022-07-18T05:01:16;7.22;;;3.22;;
21800;SDS011;11062;51.164;16.924;2022-07-18T05:03:41;11.95;;;3.40;;
21800;SDS011;11062;51.164;16.924;2022-07-18T05:06:07;8.30;;;4.05;;
21800;SDS011;11062;51.164;16.924;2022-07-18T05:08:33;8.48;;;3.40;;
21800;SDS011;11062;51.164;16.924;2022-07-18T05:10:59;6.03;;;3.22;;
21800;SDS011;11062;51.164;16.924;2022-07-18T05:13:25;7.00;;;3.80;;
21800;SDS011;11062;51.164;16.924;2022-07-18T05:15:51;9.75;;;4.07;;
21800;SDS011;11062;51.164;16.924;2022-07-18T05:18:16;6.30;;;3.55;;
21800;SDS011;11062;51.164;16.924;2022-07-18T05:20:42;7.10;;;3.20;;
21800;SDS011;11062;51.164;16.924;2022-07-18T05:23:08;7.28;;;3.35;;
21800;SDS011;11062;51.164;16.924;2022-07-18T05:25:34;5.93;;;3.30;;
21800;SDS011;11062;51.164;16.924;2022-07-18T05:28:00;14.93;;;3.13;;
21800;SDS011;11062;51.164;16.924;2022-07-18T05:30:26;5.03;;;3.45;;
21800;SDS011;11062;51.164;16.924;2022-07-18T05:32:52;9.82;;;3.47;;
21800;SDS011;11062;51.164;16.924;2022-07-18T05:35:19;7.70;;;3.35;;
21800;SDS011;11062;51.164;16.924;2022-07-18T05:37:45;8.20;;;3.50;;
21800;SDS011;11062;51.164;16.924;2022-07-18T05:40:12;9.23;;;3.40;;
21800;SDS011;11062;51.164;16.924;2022-07-18T05:42:43;8.90;;;2.88;;
21800;SDS011;11062;51.164;16.924;2022-07-18T05:45:09;6.30;;;2.90;;
21800;SDS011;11062;51.164;16.924;2022-07-18T05:47:35;6.78;;;3.35;;
21800;SDS011;11062;51.164;16.924;2022-07-18T05:50:02;6.28;;;3.05;;
21800;SDS011;11062;51.164;16.924;2022-07-18T05:52:28;8.75;;;3.38;;
21800;SDS011;11062;51.164;16.924;2022-07-18T05:54:54;8.88;;;3.55;;
21800;SDS011;11062;51.164;16.924;2022-07-18T05:57:20;7.25;;;3.45;;
21800;SDS011;11062;51.164;16.924;2022-07-18T05:59:46;7.60;;;3.50;;
21800;SDS011;11062;51.164;16.924;2022-07-18T06:02:12;8.80;;;3.60;;
21800;SDS011;11062;51.164;16.924;2022-07-18T06:04:38;5.25;;;3.33;;
21800;SDS011;11062;51.164;16.924;2022-07-18T06:07:04;13.10;;;4.13;;
21800;SDS011;11062;51.164;16.924;2022-07-18T06:09:29;7.35;;;3.88;;
21800;SDS011;11062;51.164;16.924;2022-07-18T06:11:57;10.20;;;4.68;;
21800;SDS011;11062;51.164;16.924;2022-07-18T06:14:25;11.80;;;4.97;;
21800;SDS011;11062;51.164;16.924;2022-07-18T06:16:54;8.45;;;4.47;;
21800;SDS011;11062;51.164;16.924;2022-07-18T06:19:20;13.25;;;5.20;;
21800;SDS011;11062;51.164;16.924;2022-07-18T06:21:46;13.75;;;5.45;;
21800;SDS011;11062;51.164;16.924;2022-07-18T06:24:12;14.02;;;5.20;;
21800;SDS011;11062;51.164;16.924;2022-07-18T06:26:38;14.02;;;5.18;;
21800;SDS011;11062;51.164;16.924;2022-07-18T06:29:04;8.73;;;4.88;;
21800;SDS011;11062;51.164;16.924;2022-07-18T06:31:30;11.02;;;4.85;;
21800;SDS011;11062;51.164;16.924;2022-07-18T06:33:56;10.77;;;4.28;;
21800;SDS011;11062;51.164;16.924;2022-07-18T06:36:22;15.40;;;4.45;;
21800;SDS011;11062;51.164;16.924;2022-07-18T06:38:52;11.63;;;4.25;;
21800;SDS011;11062;51.164;16.924;2022-07-18T06:41:18;9.23;;;4.03;;
21800;SDS011;11062;51.164;16.924;2022-07-18T06:43:44;10.18;;;3.53;;
21800;SDS011;11062;51.164;16.924;2022-07-18T06:46:10;8.48;;;3.63;;
21800;SDS011;11062;51.164;16.924;2022-07-18T06:48:36;12.40;;;3.28;;
21800;SDS011;11062;51.164;16.924;2022-07-18T06:51:03;11.02;;;3.17;;
21800;SDS011;11062;51.164;16.924;2022-07-18T06:53:30;15.25;;;2.97;;
21800;SDS011;11062;51.164;16.924;2022-07-18T06:55:57;9.20;;;2.55;;
21800;SDS011;11062;51.164;16.924;2022-07-18T06:58:24;10.23;;;3.42;;
21800;SDS011;11062;51.164;16.924;2022-07-18T07:00:50;16.25;;;2.90;;
21800;SDS011;11062;51.164;16.924;2022-07-18T07:03:16;10.57;;;2.53;;
21800;SDS011;11062;51.164;16.924;2022-07-18T07:05:42;18.65;;;2.85;;
21800;SDS011;11062;51.164;16.924;2022-07-18T07:08:07;10.90;;;3.17;;
21800;SDS011;11062;51.164;16.924;2022-07-18T07:10:33;8.85;;;2.95;;
21800;SDS011;11062;51.164;16.924;2022-07-18T07:13:00;13.68;;;3.03;;
21800;SDS011;11062;51.164;16.924;2022-07-18T07:15:26;7.10;;;2.50;;
21800;SDS011;11062;51.164;16.924;2022-07-18T07:17:52;11.93;;;2.10;;
21800;SDS011;11062;51.164;16.924;2022-07-18T07:20:18;7.53;;;1.90;;
21800;SDS011;11062;51.164;16.924;2022-07-18T07:22:50;6.47;;;2.40;;
21800;SDS011;11062;51.164;16.924;2022-07-18T07:25:20;3.33;;;1.40;;
21800;SDS011;11062;51.164;16.924;2022-07-18T07:27:48;4.18;;;1.35;;
21800;SDS011;11062;51.164;16.924;2022-07-18T07:30:14;9.32;;;1.58;;
21800;SDS011;11062;51.164;16.924;2022-07-18T07:32:42;5.40;;;1.70;;
21800;SDS011;11062;51.164;16.924;2022-07-18T07:35:10;6.55;;;1.50;;
21800;SDS011;11062;51.164;16.924;2022-07-18T07:37:41;4.15;;;1.60;;
21800;SDS011;11062;51.164;16.924;2022-07-18T07:40:12;5.63;;;1.77;;
21800;SDS011;11062;51.164;16.924;2022-07-18T07:42:39;6.03;;;1.90;;
21800;SDS011;11062;51.164;16.924;2022-07-18T07:45:05;3.80;;;1.25;;
21800;SDS011;11062;51.164;16.924;2022-07-18T07:47:31;4.60;;;1.52;;
21800;SDS011;11062;51.164;16.924;2022-07-18T07:49:59;4.90;;;1.42;;
21800;SDS011;11062;51.164;16.924;2022-07-18T07:52:24;9.15;;;1.60;;
21800;SDS011;11062;51.164;16.924;2022-07-18T07:54:52;8.70;;;1.80;;
21800;SDS011;11062;51.164;16.924;2022-07-18T07:57:19;4.47;;;1.50;;
21800;SDS011;11062;51.164;16.924;2022-07-18T07:59:45;5.30;;;1.73;;
21800;SDS011;11062;51.164;16.924;2022-07-18T08:02:11;3.13;;;1.38;;
21800;SDS011;11062;51.164;16.924;2022-07-18T08:04:37;8.23;;;1.75;;
21800;SDS011;11062;51.164;16.924;2022-07-18T08:07:03;5.65;;;1.50;;
21800;SDS011;11062;51.164;16.924;2022-07-18T08:09:29;7.28;;;1.98;;
21800;SDS011;11062;51.164;16.924;2022-07-18T08:11:55;3.67;;;1.33;;
21800;SDS011;11062;51.164;16.924;2022-07-18T08:14:21;7.68;;;1.58;;
21800;SDS011;11062;51.164;16.924;2022-07-18T08:16:47;5.68;;;1.40;;
21800;SDS011;11062;51.164;16.924;2022-07-18T08:19:12;4.95;;;1.95;;
21800;SDS011;11062;51.164;16.924;2022-07-18T08:21:38;4.22;;;1.50;;
21800;SDS011;11062;51.164;16.924;2022-07-18T08:24:04;6.75;;;1.50;;
21800;SDS011;11062;51.164;16.924;2022-07-18T08:26:30;5.55;;;1.50;;
21800;SDS011;11062;51.164;16.924;2022-07-18T08:28:56;4.30;;;1.95;;
21800;SDS011;11062;51.164;16.924;2022-07-18T08:31:22;5.20;;;1.80;;
21800;SDS011;11062;51.164;16.924;2022-07-18T08:33:50;5.10;;;1.85;;
21800;SDS011;11062;51.164;16.924;2022-07-18T08:36:16;4.55;;;1.30;;
21800;SDS011;11062;51.164;16.924;2022-07-18T08:38:41;4.47;;;1.52;;
21800;SDS011;11062;51.164;16.924;2022-07-18T08:41:07;2.72;;;1.20;;
21800;SDS011;11062;51.164;16.924;2022-07-18T08:43:34;4.40;;;1.40;;
21800;SDS011;11062;51.164;16.924;2022-07-18T08:46:04;5.60;;;1.55;;
21800;SDS011;11062;51.164;16.924;2022-07-18T08:48:31;3.22;;;1.33;;
21800;SDS011;11062;51.164;16.924;2022-07-18T08:50:58;3.67;;;1.63;;
21800;SDS011;11062;51.164;16.924;2022-07-18T08:53:25;2.85;;;1.42;;
21800;SDS011;11062;51.164;16.924;2022-07-18T08:55:51;4.35;;;1.48;;
21800;SDS011;11062;51.164;16.924;2022-07-18T08:58:17;3.53;;;1.50;;
21800;SDS011;11062;51.164;16.924;2022-07-18T09:00:43;2.22;;;1.30;;
21800;SDS011;11062;51.164;16.924;2022-07-18T09:03:10;2.45;;;1.40;;
21800;SDS011;11062;51.164;16.924;2022-07-18T09:05:36;3.58;;;1.40;;
21800;SDS011;11062;51.164;16.924;2022-07-18T09:08:09;4.40;;;1.77;;
21800;SDS011;11062;51.164;16.924;2022-07-18T09:10:55;4.88;;;1.63;;
21800;SDS011;11062;51.164;16.924;2022-07-18T09:13:23;3.60;;;1.30;;
21800;SDS011;11062;51.164;16.924;2022-07-18T09:18:26;3.93;;;1.47;;
21800;SDS011;11062;51.164;16.924;2022-07-18T09:20:59;3.53;;;1.60;;
21800;SDS011;11062;51.164;16.924;2022-07-18T09:23:29;4.55;;;1.85;;
21800;SDS011;11062;51.164;16.924;2022-07-18T09:25:56;3.85;;;1.38;;
21800;SDS011;11062;51.164;16.924;2022-07-18T09:28:22;4.75;;;1.52;;
21800;SDS011;11062;51.164;16.924;2022-07-18T09:30:48;3.38;;;1.60;;
21800;SDS011;11062;51.164;16.924;2022-07-18T09:33:14;2.88;;;1.40;;
21800;SDS011;11062;51.164;16.924;2022-07-18T09:38:12;3.55;;;1.63;;
21800;SDS011;11062;51.164;16.924;2022-07-18T09:40:52;5.50;;;1.48;;
21800;SDS011;11062;51.164;16.924;2022-07-18T09:43:21;6.00;;;1.40;;
21800;SDS011;11062;51.164;16.924;2022-07-18T09:45:51;3.92;;;1.70;;
21800;SDS011;11062;51.164;16.924;2022-07-18T09:48:25;4.68;;;1.75;;
21800;SDS011;11062;51.164;16.924;2022-07-18T09:50:53;2.97;;;1.45;;
21800;SDS011;11062;51.164;16.924;2022-07-18T09:53:23;4.95;;;1.55;;
21800;SDS011;11062;51.164;16.924;2022-07-18T09:55:58;6.22;;;1.42;;
21800;SDS011;11062;51.164;16.924;2022-07-18T09:58:26;3.33;;;1.73;;
21800;SDS011;11062;51.164;16.924;2022-07-18T10:00:54;6.45;;;1.80;;
21800;SDS011;11062;51.164;16.924;2022-07-18T10:03:21;5.40;;;1.52;;
21800;SDS011;11062;51.164;16.924;2022-07-18T10:05:49;3.97;;;1.50;;
21800;SDS011;11062;51.164;16.924;2022-07-18T10:08:18;2.47;;;1.55;;
21800;SDS011;11062;51.164;16.924;2022-07-18T10:10:47;4.80;;;1.70;;
21800;SDS011;11062;51.164;16.924;2022-07-18T10:13:14;6.65;;;1.98;;
21800;SDS011;11062;51.164;16.924;2022-07-18T10:15:44;3.38;;;1.60;;
21800;SDS011;11062;51.164;16.924;2022-07-18T10:18:14;3.38;;;1.88;;
21800;SDS011;11062;51.164;16.924;2022-07-18T10:20:53;4.38;;;1.70;;
21800;SDS011;11062;51.164;16.924;2022-07-18T10:23:40;6.55;;;2.08;;
21800;SDS011;11062;51.164;16.924;2022-07-18T10:26:12;7.05;;;1.77;;
21800;SDS011;11062;51.164;16.924;2022-07-18T10:31:21;4.43;;;1.80;;
21800;SDS011;11062;51.164;16.924;2022-07-18T10:33:47;3.83;;;1.90;;
21800;SDS011;11062;51.164;16.924;2022-07-18T10:42:11;3.03;;;1.52;;
21800;SDS011;11062;51.164;16.924;2022-07-18T10:44:37;5.38;;;1.80;;
21800;SDS011;11062;51.164;16.924;2022-07-18T10:47:10;6.65;;;1.75;;
21800;SDS011;11062;51.164;16.924;2022-07-18T10:57:34;3.85;;;1.50;;
21800;SDS011;11062;51.164;16.924;2022-07-18T11:00:11;4.22;;;1.63;;
21800;SDS011;11062;51.164;16.924;2022-07-18T11:05:52;4.95;;;1.58;;
21800;SDS011;11062;51.164;16.924;2022-07-18T11:23:59;3.30;;;1.58;;
21800;SDS011;11062;51.164;16.924;2022-07-18T11:26:26;4.47;;;1.45;;
21800;SDS011;11062;51.164;16.924;2022-07-18T11:29:03;5.97;;;1.70;;
21800;SDS011;11062;51.164;16.924;2022-07-18T11:31:31;4.03;;;1.60;;
21800;SDS011;11062;51.164;16.924;2022-07-18T11:34:17;2.92;;;1.40;;
21800;SDS011;11062;51.164;16.924;2022-07-18T11:36:44;2.75;;;1.60;;
21800;SDS011;11062;51.164;16.924;2022-07-18T11:39:12;8.20;;;1.63;;
21800;SDS011;11062;51.164;16.924;2022-07-18T11:41:39;4.10;;;1.73;;
21800;SDS011;11062;51.164;16.924;2022-07-18T11:44:15;2.28;;;1.67;;
21800;SDS011;11062;51.164;16.924;2022-07-18T11:46:43;2.75;;;1.83;;
21800;SDS011;11062;51.164;16.924;2022-07-18T11:49:08;3.95;;;1.60;;
21800;SDS011;11062;51.164;16.924;2022-07-18T11:51:35;3.70;;;1.73;;
21800;SDS011;11062;51.164;16.924;2022-07-18T11:54:06;11.13;;;1.98;;
21800;SDS011;11062;51.164;16.924;2022-07-18T11:56:32;6.80;;;1.90;;
21800;SDS011;11062;51.164;16.924;2022-07-18T11:59:09;6.13;;;2.17;;
21800;SDS011;11062;51.164;16.924;2022-07-18T12:01:36;4.88;;;1.90;;
21800;SDS011;11062;51.164;16.924;2022-07-18T12:04:01;4.90;;;1.50;;
21800;SDS011;11062;51.164;16.924;2022-07-18T12:06:28;2.10;;;1.42;;
21800;SDS011;11062;51.164;16.924;2022-07-18T12:08:54;6.03;;;1.83;;
21800;SDS011;11062;51.164;16.924;2022-07-18T12:11:35;1.92;;;1.30;;
21800;SDS011;11062;51.164;16.924;2022-07-18T12:14:02;5.75;;;2.10;;
21800;SDS011;11062;51.164;16.924;2022-07-18T12:27:20;8.30;;;1.67;;
21800;SDS011;11062;51.164;16.924;2022-07-18T12:29:58;2.85;;;1.70;;
21800;SDS011;11062;51.164;16.924;2022-07-18T12:35:13;3.75;;;1.70;;
21800;SDS011;11062;51.164;16.924;2022-07-18T12:37:59;2.23;;;1.47;;
21800;SDS011;11062;51.164;16.924;2022-07-18T12:40:26;1.73;;;1.30;;
21800;SDS011;11062;51.164;16.924;2022-07-18T12:43:09;3.70;;;1.83;;
21800;SDS011;11062;51.164;16.924;2022-07-18T12:45:46;3.95;;;1.63;;
21800;SDS011;11062;51.164;16.924;2022-07-18T12:48:12;4.90;;;1.73;;
21800;SDS011;11062;51.164;16.924;2022-07-18T12:50:38;4.78;;;1.80;;
21800;SDS011;11062;51.164;16.924;2022-07-18T12:53:05;2.53;;;1.65;;
21800;SDS011;11062;51.164;16.924;2022-07-18T12:55:31;9.55;;;2.65;;
21800;SDS011;11062;51.164;16.924;2022-07-18T12:57:58;3.53;;;1.60;;
21800;SDS011;11062;51.164;16.924;2022-07-18T13:00:25;3.15;;;1.60;;
21800;SDS011;11062;51.164;16.924;2022-07-18T13:02:51;5.32;;;1.70;;
21800;SDS011;11062;51.164;16.924;2022-07-18T13:05:17;6.70;;;2.63;;
21800;SDS011;11062;51.164;16.924;2022-07-18T13:07:43;2.53;;;1.88;;
21800;SDS011;11062;51.164;16.924;2022-07-18T13:10:08;4.60;;;2.15;;
21800;SDS011;11062;51.164;16.924;2022-07-18T13:12:34;3.30;;;1.83;;
21800;SDS011;11062;51.164;16.924;2022-07-18T13:15:00;6.35;;;1.85;;
21800;SDS011;11062;51.164;16.924;2022-07-18T13:17:26;5.13;;;1.35;;
21800;SDS011;11062;51.164;16.924;2022-07-18T13:19:52;5.07;;;1.98;;
21800;SDS011;11062;51.164;16.924;2022-07-18T13:22:17;6.88;;;2.47;;
21800;SDS011;11062;51.164;16.924;2022-07-18T13:24:43;5.95;;;1.60;;
21800;SDS011;11062;51.164;16.924;2022-07-18T13:27:09;4.47;;;1.60;;
21800;SDS011;11062;51.164;16.924;2022-07-18T13:29:35;3.08;;;1.95;;
21800;SDS011;11062;51.164;16.924;2022-07-18T13:32:01;3.28;;;1.70;;
21800;SDS011;11062;51.164;16.924;2022-07-18T13:34:28;5.47;;;1.95;;
21800;SDS011;11062;51.164;16.924;2022-07-18T13:36:54;6.43;;;1.60;;
21800;SDS011;11062;51.164;16.924;2022-07-18T13:39:21;4.03;;;1.92;;
21800;SDS011;11062;51.164;16.924;2022-07-18T13:41:47;3.72;;;2.10;;
21800;SDS011;11062;51.164;16.924;2022-07-18T13:44:14;5.55;;;2.20;;
21800;SDS011;11062;51.164;16.924;2022-07-18T13:46:40;4.53;;;1.92;;
21800;SDS011;11062;51.164;16.924;2022-07-18T13:49:10;4.80;;;2.08;;
21800;SDS011;11062;51.164;16.924;2022-07-18T13:51:36;8.80;;;2.13;;
21800;SDS011;11062;51.164;16.924;2022-07-18T13:54:06;2.63;;;1.80;;
21800;SDS011;11062;51.164;16.924;2022-07-18T13:56:32;2.50;;;1.92;;
21800;SDS011;11062;51.164;16.924;2022-07-18T13:59:01;5.13;;;2.00;;
21800;SDS011;11062;51.164;16.924;2022-07-18T14:01:26;2.28;;;1.48;;
21800;SDS011;11062;51.164;16.924;2022-07-18T14:03:52;3.47;;;2.00;;
21800;SDS011;11062;51.164;16.924;2022-07-18T14:06:18;5.30;;;1.98;;
21800;SDS011;11062;51.164;16.924;2022-07-18T14:08:44;5.80;;;2.00;;
21800;SDS011;11062;51.164;16.924;2022-07-18T14:11:10;2.88;;;1.90;;
21800;SDS011;11062;51.164;16.924;2022-07-18T14:13:36;1.92;;;1.40;;
21800;SDS011;11062;51.164;16.924;2022-07-18T14:16:02;4.10;;;1.85;;
21800;SDS011;11062;51.164;16.924;2022-07-18T14:18:28;2.92;;;2.00;;
21800;SDS011;11062;51.164;16.924;2022-07-18T14:20:54;5.47;;;2.05;;
21800;SDS011;11062;51.164;16.924;2022-07-18T14:23:19;3.53;;;1.75;;
21800;SDS011;11062;51.164;16.924;2022-07-18T14:25:47;4.50;;;1.85;;
21800;SDS011;11062;51.164;16.924;2022-07-18T14:28:13;5.20;;;1.60;;
21800;SDS011;11062;51.164;16.924;2022-07-18T14:30:38;7.03;;;2.13;;
21800;SDS011;11062;51.164;16.924;2022-07-18T14:33:04;4.03;;;2.22;;
21800;SDS011;11062;51.164;16.924;2022-07-18T14:35:30;6.65;;;2.30;;
21800;SDS011;11062;51.164;16.924;2022-07-18T14:37:56;3.13;;;2.03;;
21800;SDS011;11062;51.164;16.924;2022-07-18T14:40:22;6.50;;;2.08;;
21800;SDS011;11062;51.164;16.924;2022-07-18T14:42:48;10.38;;;2.65;;
21800;SDS011;11062;51.164;16.924;2022-07-18T14:45:15;2.63;;;2.10;;
21800;SDS011;11062;51.164;16.924;2022-07-18T14:47:42;5.00;;;1.88;;
21800;SDS011;11062;51.164;16.924;2022-07-18T14:50:08;4.47;;;1.80;;
21800;SDS011;11062;51.164;16.924;2022-07-18T14:52:35;4.32;;;2.00;;
21800;SDS011;11062;51.164;16.924;2022-07-18T14:55:02;3.38;;;1.92;;
21800;SDS011;11062;51.164;16.924;2022-07-18T14:57:29;2.08;;;1.88;;
21800;SDS011;11062;51.164;16.924;2022-07-18T14:59:54;3.05;;;2.15;;
21800;SDS011;11062;51.164;16.924;2022-07-18T15:02:20;5.30;;;2.00;;
21800;SDS011;11062;51.164;16.924;2022-07-18T15:04:46;7.20;;;2.03;;
21800;SDS011;11062;51.164;16.924;2022-07-18T15:07:13;2.58;;;1.88;;
21800;SDS011;11062;51.164;16.924;2022-07-18T15:09:39;4.40;;;2.20;;
21800;SDS011;11062;51.164;16.924;2022-07-18T15:12:05;2.08;;;1.88;;
21800;SDS011;11062;51.164;16.924;2022-07-18T15:14:33;2.50;;;1.70;;
21800;SDS011;11062;51.164;16.924;2022-07-18T15:16:59;2.60;;;1.67;;
21800;SDS011;11062;51.164;16.924;2022-07-18T15:19:25;3.38;;;1.92;;
21800;SDS011;11062;51.164;16.924;2022-07-18T15:21:51;4.43;;;2.35;;
21800;SDS011;11062;51.164;16.924;2022-07-18T15:24:17;2.70;;;2.05;;
21800;SDS011;11062;51.164;16.924;2022-07-18T15:26:43;2.90;;;1.65;;